createdAt,value
2022-08-18T00:01:44.137Z,10.88
2022-08-18T00:04:15.363Z,11.52
2022-08-18T00:06:58.960Z,10.60
2022-08-18T00:09:30.167Z,10.18
2022-08-18T00:11:58.720Z,9.82
2022-08-18T00:14:25.341Z,10.27
2022-08-18T00:16:53.909Z,10.50
2022-08-18T00:19:43.518Z,9.80
2022-08-18T00:22:09.255Z,10.00
2022-08-18T00:24:48.512Z,10.38
2022-08-18T00:27:31.356Z,10.32
2022-08-18T00:30:01.415Z,9.98
2022-08-18T00:32:34.520Z,10.50
2022-08-18T00:35:13.579Z,9.77
2022-08-18T00:37:41.393Z,10.18
2022-08-18T00:40:12.267Z,9.65
2022-08-18T00:42:46.004Z,9.50
2022-08-18T00:45:27.172Z,9.50
2022-08-18T00:47:54.781Z,9.02
2022-08-18T00:50:27.725Z,8.85
2022-08-18T00:53:00.547Z,9.05
2022-08-18T00:55:30.051Z,9.15
2022-08-18T00:58:08.781Z,9.43
2022-08-18T01:00:36.189Z,8.70
2022-08-18T01:03:08.559Z,8.60
2022-08-18T01:05:49.820Z,8.48
2022-08-18T01:08:17.217Z,8.68
2022-08-18T01:10:55.350Z,9.00
2022-08-18T01:13:27.614Z,7.95
2022-08-18T01:15:54.235Z,8.07
2022-08-18T01:18:40.358Z,8.80
2022-08-18T01:21:45.042Z,9.38
2022-08-18T01:24:12.958Z,10.90
2022-08-18T01:26:45.855Z,10.18
2022-08-18T01:29:18.923Z,11.70
2022-08-18T01:31:55.416Z,11.40
2022-08-18T01:34:25.113Z,11.48
2022-08-18T01:36:54.015Z,11.30
2022-08-18T01:40:59.942Z,11.02
2022-08-18T01:42:08.621Z,12.35
2022-08-18T01:44:35.430Z,12.40
2022-08-18T01:47:02.079Z,12.05
2022-08-18T01:49:28.754Z,10.57
2022-08-18T01:51:58.447Z,11.38
2022-08-18T01:54:29.850Z,11.85
2022-08-18T01:56:56.966Z,11.23
2022-08-18T01:59:23.670Z,11.50
2022-08-18T02:01:56.203Z,11.77
2022-08-18T02:04:36.941Z,11.32
2022-08-18T02:07:07.496Z,10.82
2022-08-18T02:09:35.142Z,11.35
2022-08-18T02:12:01.827Z,10.85
2022-08-18T02:14:31.307Z,11.15
2022-08-18T02:17:02.431Z,10.95
2022-08-18T02:19:43.377Z,11.82
2022-08-18T02:22:16.120Z,9.68
2022-08-18T02:24:43.360Z,10.30
2022-08-18T02:27:11.349Z,10.05
2022-08-18T02:29:38.539Z,10.02
2022-08-18T02:32:05.951Z,9.48
2022-08-18T02:34:32.686Z,9.75
2022-08-18T02:37:00.742Z,10.00
2022-08-18T02:39:28.177Z,9.80
2022-08-18T02:41:54.843Z,9.50
2022-08-18T02:44:21.525Z,9.73
2022-08-18T02:46:53.758Z,9.70
2022-08-18T02:49:20.533Z,10.70
2022-08-18T02:51:47.119Z,10.27
2022-08-18T02:54:13.739Z,10.20
2022-08-18T02:56:42.539Z,10.30
2022-08-18T02:59:12.561Z,9.90
2022-08-18T03:01:42.199Z,9.85
2022-08-18T03:04:12.327Z,9.75
2022-08-18T03:06:39.298Z,11.27
2022-08-18T03:09:07.233Z,10.05
2022-08-18T03:11:34.131Z,10.40
2022-08-18T03:14:01.213Z,10.00
2022-08-18T03:16:31.315Z,10.07
2022-08-18T03:18:58.462Z,10.43
2022-08-18T03:21:27.571Z,10.07
2022-08-18T03:24:00.361Z,9.15
2022-08-18T03:26:30.983Z,10.38
2022-08-18T03:28:59.887Z,10.50
2022-08-18T03:31:31.123Z,10.25
2022-08-18T03:33:59.921Z,10.50
2022-08-18T03:36:30.619Z,9.90
2022-08-18T03:38:57.886Z,10.30
2022-08-18T03:41:44.388Z,10.50
2022-08-18T03:44:15.183Z,9.68
2022-08-18T03:46:43.616Z,9.50
2022-08-18T03:49:10.845Z,10.10
2022-08-18T03:51:38.395Z,11.02
2022-08-18T03:54:05.990Z,11.23
2022-08-18T03:56:35.514Z,10.70
2022-08-18T03:59:07.692Z,9.73
2022-08-18T04:01:39.214Z,9.20
2022-08-18T04:04:09.325Z,9.50
2022-08-18T04:06:45.434Z,9.93
2022-08-18T04:09:14.830Z,9.80
2022-08-18T04:11:43.377Z,10.30
2022-08-18T04:14:13.368Z,10.25
2022-08-18T04:16:41.109Z,9.88
2022-08-18T04:19:08.738Z,9.60
2022-08-18T04:21:38.626Z,10.23
2022-08-18T04:24:07.331Z,10.43
2022-08-18T04:26:37.490Z,10.77
2022-08-18T04:29:06.010Z,10.05
2022-08-18T04:31:32.774Z,9.57
2022-08-18T04:34:01.013Z,9.00
2022-08-18T04:36:29.284Z,10.07
2022-08-18T04:38:56.915Z,9.75
2022-08-18T04:41:26.939Z,9.15
2022-08-18T04:43:58.345Z,10.43
2022-08-18T04:46:26.049Z,9.50
2022-08-18T04:48:58.583Z,10.43
2022-08-18T04:52:38.971Z,10.35
2022-08-18T04:54:15.927Z,10.02
2022-08-18T04:56:42.499Z,10.95
2022-08-18T04:59:11.627Z,10.73
2022-08-18T05:01:45.526Z,9.88
2022-08-18T05:04:14.158Z,10.70
2022-08-18T05:06:42.539Z,9.75
2022-08-18T05:09:11.183Z,9.98
2022-08-18T05:11:39.009Z,10.35
2022-08-18T05:14:07.925Z,11.02
2022-08-18T05:16:36.550Z,10.30
2022-08-18T05:19:19.203Z,10.82
2022-08-18T05:21:46.245Z,10.25
2022-08-18T05:24:17.687Z,10.52
2022-08-18T05:26:44.467Z,10.85
2022-08-18T05:29:19.003Z,10.30
2022-08-18T05:31:46.919Z,9.55
2022-08-18T05:34:13.709Z,10.43
2022-08-18T05:36:46.944Z,11.27
2022-08-18T05:39:19.795Z,10.32
2022-08-18T05:42:00.247Z,10.05
2022-08-18T05:44:29.403Z,9.95
2022-08-18T05:47:18.725Z,10.57
2022-08-18T05:49:50.275Z,10.00
2022-08-18T05:52:45.813Z,10.23
2022-08-18T05:55:48.203Z,10.32
2022-08-18T05:58:37.745Z,9.98
2022-08-18T06:01:18.591Z,10.55
2022-08-18T06:03:56.587Z,9.77
2022-08-18T06:06:29.452Z,8.35
2022-08-18T06:09:23.776Z,9.80
2022-08-18T06:11:53.100Z,10.07
2022-08-18T06:14:20.096Z,10.13
2022-08-18T06:17:18.322Z,10.18
2022-08-18T06:20:03.173Z,8.80
2022-08-18T06:22:55.277Z,9.77
2022-08-18T06:25:35.410Z,10.40
2022-08-18T06:28:22.295Z,11.23
2022-08-18T06:31:06.935Z,9.80
2022-08-18T06:33:50.202Z,10.32
2022-08-18T06:36:39.258Z,10.70
2022-08-18T06:39:18.056Z,10.98
2022-08-18T06:41:49.059Z,10.07
2022-08-18T06:44:50.429Z,10.50
2022-08-18T06:47:40.849Z,10.60
2022-08-18T06:50:13.494Z,10.20
2022-08-18T06:52:53.229Z,10.07
2022-08-18T06:55:51.731Z,10.73
2022-08-18T06:58:18.271Z,11.57
2022-08-18T07:00:51.804Z,11.40
2022-08-18T07:03:41.041Z,12.55
2022-08-18T07:06:25.519Z,12.55
2022-08-18T07:08:54.697Z,11.60
2022-08-18T07:11:31.592Z,12.05
2022-08-18T07:14:22.049Z,12.38
2022-08-18T07:16:58.889Z,12.07
2022-08-18T07:19:30.586Z,10.38
2022-08-18T07:22:10.523Z,10.57
2022-08-18T07:24:55.964Z,11.23
2022-08-18T07:27:49.017Z,10.35
2022-08-18T07:30:21.446Z,10.38
2022-08-18T07:33:04.570Z,9.15
2022-08-18T07:35:49.148Z,9.13
2022-08-18T07:38:43.079Z,10.00
2022-08-18T07:41:42.688Z,9.00
2022-08-18T07:44:27.540Z,9.45
2022-08-18T07:47:12.568Z,11.15
2022-08-18T07:49:59.672Z,11.13
2022-08-18T07:52:46.864Z,10.63
2022-08-18T07:55:35.407Z,10.93
2022-08-18T07:58:31.802Z,10.02
2022-08-18T08:01:29.700Z,10.85
2022-08-18T08:04:09.523Z,11.18
2022-08-18T08:07:26.234Z,10.93
2022-08-18T08:10:26.535Z,11.63
2022-08-18T08:13:26.061Z,11.60
2022-08-18T08:16:18.686Z,11.18
2022-08-18T08:19:15.195Z,11.60
2022-08-18T08:22:00.855Z,10.95
2022-08-18T08:24:56.663Z,11.18
2022-08-18T08:27:45.339Z,10.55
2022-08-18T08:30:15.213Z,10.88
2022-08-18T08:33:02.283Z,11.32
2022-08-18T08:36:01.263Z,11.32
2022-08-18T08:38:44.988Z,11.40
2022-08-18T08:41:28.242Z,11.30
2022-08-18T08:44:09.287Z,10.32
2022-08-18T08:46:51.610Z,10.68
2022-08-18T08:49:27.468Z,10.73
2022-08-18T08:52:05.341Z,10.50
2022-08-18T08:54:51.363Z,10.32
2022-08-18T08:57:20.557Z,9.80
2022-08-18T08:59:49.795Z,10.57
2022-08-18T09:02:54.578Z,11.43
2022-08-18T09:05:26.450Z,10.00
2022-08-18T09:08:08.292Z,9.90
2022-08-18T09:11:05.662Z,10.73
2022-08-18T09:14:04.036Z,9.50
2022-08-18T09:17:04.831Z,10.50
2022-08-18T09:19:39.591Z,10.15
2022-08-18T09:22:12.190Z,11.00
2022-08-18T09:24:47.170Z,10.50
2022-08-18T09:27:30.624Z,11.05
2022-08-18T09:30:00.677Z,10.73
2022-08-18T09:32:27.215Z,10.20
2022-08-18T09:35:00.945Z,10.43
2022-08-18T09:37:33.698Z,11.43
2022-08-18T09:40:59.388Z,11.68
2022-08-18T09:43:37.452Z,11.43
2022-08-18T09:46:05.603Z,11.77
2022-08-18T09:48:43.227Z,12.27
2022-08-18T09:51:18.318Z,11.23
2022-08-18T09:53:45.842Z,11.93
2022-08-18T09:56:19.629Z,12.38
2022-08-18T09:59:00.216Z,12.43
2022-08-18T10:01:30.170Z,12.20
2022-08-18T10:04:15.043Z,11.75
2022-08-18T10:06:48.934Z,11.70
2022-08-18T10:12:29.435Z,11.45
2022-08-18T10:15:12.165Z,12.23
2022-08-18T10:18:14.225Z,12.23
2022-08-18T10:20:58.507Z,12.98
2022-08-18T10:26:38.695Z,11.98
2022-08-18T10:29:11.666Z,12.25
2022-08-18T10:31:59.694Z,12.05
2022-08-18T10:37:44.361Z,11.50
2022-08-18T10:40:13.517Z,12.15
2022-08-18T10:43:00.265Z,12.85
2022-08-18T10:45:31.496Z,12.43
2022-08-18T10:48:05.171Z,13.43
2022-08-18T10:50:48.831Z,12.70
2022-08-18T10:53:39.275Z,12.63
2022-08-18T10:56:26.706Z,12.57
2022-08-18T10:59:32.279Z,12.60
2022-08-18T11:02:31.718Z,12.18
2022-08-18T11:04:59.946Z,10.93
2022-08-18T11:10:31.925Z,10.38
2022-08-18T11:13:31.228Z,10.35
2022-08-18T11:16:36.287Z,10.82
2022-08-18T11:19:16.861Z,10.32
2022-08-18T11:21:46.202Z,9.95
2022-08-18T11:24:24.177Z,11.15
2022-08-18T11:27:02.148Z,11.02
2022-08-18T11:29:33.086Z,11.00
2022-08-18T11:32:03.904Z,10.25
2022-08-18T11:34:41.284Z,12.20
2022-08-18T11:37:49.730Z,11.45
2022-08-18T11:40:51.588Z,11.35
2022-08-18T11:43:15.298Z,12.48
2022-08-18T11:46:10.252Z,11.63
2022-08-18T11:48:51.687Z,11.38
2022-08-18T11:51:25.026Z,10.25
2022-08-18T11:53:58.342Z,10.23
2022-08-18T11:56:32.355Z,10.00
2022-08-18T12:02:21.015Z,8.77
2022-08-18T12:04:52.739Z,8.77
2022-08-18T12:07:32.022Z,8.48
2022-08-18T12:10:26.011Z,9.48
2022-08-18T12:12:55.848Z,9.15
2022-08-18T12:15:44.203Z,8.45
2022-08-18T12:18:26.454Z,9.70
2022-08-18T12:20:56.990Z,8.73
2022-08-18T12:23:24.203Z,7.85
2022-08-18T12:25:51.706Z,8.35
2022-08-18T12:28:19.687Z,9.48
2022-08-18T12:30:56.286Z,8.57
2022-08-18T12:33:25.662Z,8.82
2022-08-18T12:36:04.188Z,7.95
2022-08-18T12:38:32.461Z,8.35
2022-08-18T12:41:03.409Z,7.65
2022-08-18T12:43:32.316Z,8.20
2022-08-18T12:46:00.042Z,7.57
2022-08-18T12:48:29.885Z,8.77
2022-08-18T12:50:58.394Z,8.90
2022-08-18T12:53:29.532Z,8.10
2022-08-18T12:56:14.185Z,8.48
2022-08-18T12:58:40.789Z,7.45
2022-08-18T13:01:07.592Z,9.20
2022-08-18T13:03:35.220Z,8.02
2022-08-18T13:06:04.466Z,8.70
2022-08-18T13:08:33.800Z,7.82
2022-08-18T13:11:19.857Z,8.48
2022-08-18T13:13:56.300Z,7.72
2022-08-18T13:16:38.644Z,8.85
2022-08-18T13:19:14.387Z,7.60
2022-08-18T13:21:43.057Z,8.13
2022-08-18T13:24:12.507Z,8.07
2022-08-18T13:26:45.605Z,7.70
2022-08-18T13:29:14.222Z,8.18
2022-08-18T13:31:41.048Z,8.30
2022-08-18T13:34:19.310Z,8.68
2022-08-18T13:36:48.210Z,8.68
2022-08-18T13:39:17.456Z,8.75
2022-08-18T13:41:45.689Z,8.25
2022-08-18T13:44:18.854Z,8.07
2022-08-18T13:46:47.944Z,8.25
2022-08-18T13:49:23.445Z,9.10
2022-08-18T13:51:52.475Z,8.30
2022-08-18T13:54:31.261Z,8.63
2022-08-18T13:56:58.621Z,9.18
2022-08-18T13:59:31.384Z,9.07
2022-08-18T14:01:59.556Z,9.68
2022-08-18T14:04:27.716Z,8.90
2022-08-18T14:06:57.201Z,8.93
2022-08-18T14:09:36.720Z,9.10
2022-08-18T14:12:33.224Z,9.00
2022-08-18T14:15:00.209Z,9.15
2022-08-18T14:17:28.047Z,8.77
2022-08-18T14:20:21.309Z,8.90
2022-08-18T14:23:13.050Z,9.38
2022-08-18T14:25:59.963Z,10.18
2022-08-18T14:28:28.237Z,10.35
2022-08-18T14:30:57.119Z,11.65
2022-08-18T14:33:26.148Z,10.98
2022-08-18T14:36:06.315Z,11.15
2022-08-18T14:38:36.287Z,10.85
2022-08-18T14:41:06.997Z,10.85
2022-08-18T14:44:04.032Z,11.48
2022-08-18T14:46:23.247Z,11.13
2022-08-18T14:48:57.021Z,11.27
2022-08-18T14:51:27.246Z,10.77
2022-08-18T14:53:54.285Z,11.65
2022-08-18T14:56:23.414Z,11.65
2022-08-18T14:58:55.150Z,10.77
2022-08-18T15:01:22.725Z,12.00
2022-08-18T15:03:49.755Z,13.40
2022-08-18T15:06:17.240Z,14.07
2022-08-18T15:08:49.818Z,14.00
2022-08-18T15:11:17.378Z,13.18
2022-08-18T15:13:46.042Z,13.27
2022-08-18T15:16:14.964Z,12.45
2022-08-18T15:18:43.616Z,11.80
2022-08-18T15:21:35.281Z,11.25
2022-08-18T15:24:25.759Z,10.85
2022-08-18T15:26:57.562Z,10.13
2022-08-18T15:29:28.991Z,10.25
2022-08-18T15:32:05.583Z,10.15
2022-08-18T15:34:33.405Z,10.70
2022-08-18T15:37:15.783Z,10.63
2022-08-18T15:39:46.743Z,12.00
2022-08-18T15:42:19.038Z,11.57
2022-08-18T15:44:47.182Z,10.95
2022-08-18T15:47:20.712Z,11.02
2022-08-18T15:49:47.969Z,10.60
2022-08-18T15:52:15.201Z,11.60
2022-08-18T15:54:44.507Z,11.38
2022-08-18T15:57:39.116Z,11.77
2022-08-18T16:00:05.356Z,11.32
2022-08-18T16:02:32.094Z,11.15
2022-08-18T16:05:10.158Z,10.52
2022-08-18T16:07:40.942Z,10.77
2022-08-18T16:10:12.788Z,11.07
2022-08-18T16:12:45.616Z,11.07
2022-08-18T16:15:15.182Z,10.93
2022-08-18T16:17:47.654Z,11.25
2022-08-18T16:20:14.734Z,10.82
2022-08-18T16:22:41.767Z,10.02
2022-08-18T16:25:09.938Z,9.60
2022-08-18T16:27:41.285Z,10.65
2022-08-18T16:30:14.325Z,8.90
2022-08-18T16:32:41.079Z,9.38
2022-08-18T16:35:08.110Z,9.35
2022-08-18T16:37:34.821Z,9.60
2022-08-18T16:40:01.517Z,9.48
2022-08-18T16:42:32.461Z,9.10
2022-08-18T16:45:00.141Z,9.43
2022-08-18T16:47:27.278Z,9.38
2022-08-18T16:49:58.566Z,10.18
2022-08-18T16:52:25.451Z,10.32
2022-08-18T16:54:57.720Z,10.07
2022-08-18T16:57:53.121Z,9.90
2022-08-18T17:00:39.827Z,10.02
2022-08-18T17:03:25.712Z,10.13
2022-08-18T17:06:02.039Z,9.88
2022-08-18T17:08:28.861Z,10.68
2022-08-18T17:10:55.485Z,10.50
2022-08-18T17:13:23.072Z,10.40
2022-08-18T17:15:50.660Z,10.55
2022-08-18T17:18:17.386Z,10.80
2022-08-18T17:20:43.995Z,10.70
2022-08-18T17:23:10.634Z,10.48
2022-08-18T17:25:37.771Z,10.88
2022-08-18T17:28:09.987Z,10.55
2022-08-18T17:30:47.635Z,10.63
2022-08-18T17:33:19.426Z,10.38
2022-08-18T17:35:47.525Z,10.77
2022-08-18T17:38:40.214Z,10.70
2022-08-18T17:41:07.232Z,10.02
2022-08-18T17:46:27.206Z,10.40
2022-08-18T17:48:57.094Z,9.98
2022-08-18T17:51:48.920Z,9.80
2022-08-18T17:54:23.345Z,10.10
2022-08-18T17:56:53.643Z,9.88
2022-08-18T17:59:46.032Z,9.43
2022-08-18T18:02:28.754Z,10.13
2022-08-18T18:04:59.106Z,10.27
2022-08-18T18:07:29.781Z,10.38
2022-08-18T18:10:22.659Z,10.23
2022-08-18T18:13:26.961Z,10.48
2022-08-18T18:16:01.058Z,10.55
2022-08-18T18:18:45.419Z,10.43
2022-08-18T18:21:15.460Z,10.52
2022-08-18T18:23:51.608Z,10.93
2022-08-18T18:26:23.357Z,10.88
2022-08-18T18:28:50.583Z,10.35
2022-08-18T18:31:26.770Z,10.60
2022-08-18T18:34:00.172Z,10.27
2022-08-18T18:36:40.201Z,10.90
2022-08-18T18:39:19.826Z,10.82
2022-08-18T18:41:48.461Z,10.32
2022-08-18T18:44:16.092Z,11.10
2022-08-18T18:47:02.350Z,10.93
2022-08-18T18:49:49.749Z,10.65
2022-08-18T18:52:47.868Z,11.55
2022-08-18T18:55:19.447Z,11.43
2022-08-18T18:58:04.913Z,11.05
2022-08-18T19:00:53.692Z,11.48
2022-08-18T19:03:35.298Z,11.00
2022-08-18T19:06:13.986Z,11.75
2022-08-18T19:08:43.687Z,11.32
2022-08-18T19:11:16.551Z,11.43
2022-08-18T19:13:57.314Z,11.20
2022-08-18T19:16:39.803Z,11.32
2022-08-18T19:19:37.453Z,11.48
2022-08-18T19:22:09.975Z,11.95
2022-08-18T19:24:44.822Z,11.07
2022-08-18T19:27:23.437Z,11.82
2022-08-18T19:29:54.230Z,11.75
2022-08-18T19:32:30.910Z,12.40
2022-08-18T19:34:58.459Z,11.70
2022-08-18T19:37:42.567Z,12.60
2022-08-18T19:40:40.415Z,12.05
2022-08-18T19:43:27.552Z,11.70
2022-08-18T19:46:15.001Z,12.50
2022-08-18T19:48:52.810Z,12.90
2022-08-18T19:51:25.331Z,12.35
2022-08-18T19:53:57.677Z,12.52
2022-08-18T19:56:27.594Z,13.15
2022-08-18T19:59:26.008Z,11.93
2022-08-18T20:02:27.918Z,12.05
2022-08-18T20:05:28.171Z,12.30
2022-08-18T20:08:19.491Z,12.35
2022-08-18T20:10:58.340Z,13.20
2022-08-18T20:13:33.078Z,13.85
2022-08-18T20:16:13.023Z,12.88
2022-08-18T20:18:46.028Z,13.02
2022-08-18T20:21:15.551Z,13.07
2022-08-18T20:24:18.254Z,12.90
2022-08-18T20:26:49.410Z,13.27
2022-08-18T20:29:19.545Z,12.68
2022-08-18T20:31:49.538Z,12.48
2022-08-18T20:34:20.797Z,13.48
2022-08-18T20:36:49.253Z,12.98
2022-08-18T20:39:43.505Z,13.57
2022-08-18T20:42:34.303Z,13.90
2022-08-18T20:45:13.634Z,12.82
2022-08-18T20:47:52.164Z,12.15
2022-08-18T20:50:33.767Z,12.73
2022-08-18T20:53:49.886Z,12.35
2022-08-18T20:56:46.526Z,12.38
2022-08-18T20:59:29.115Z,12.45
2022-08-18T21:02:04.540Z,13.07
2022-08-18T21:04:38.166Z,12.77
2022-08-18T21:07:19.242Z,12.13
2022-08-18T21:10:19.935Z,13.65
2022-08-18T21:12:53.700Z,12.45
2022-08-18T21:15:24.274Z,12.65
2022-08-18T21:18:02.274Z,12.68
2022-08-18T21:20:29.614Z,12.43
2022-08-18T21:23:12.500Z,13.18
2022-08-18T21:25:53.686Z,12.27
2022-08-18T21:28:22.588Z,13.32
2022-08-18T21:31:41.746Z,13.25
2022-08-18T21:34:13.502Z,13.57
2022-08-18T21:36:50.938Z,12.95
2022-08-18T21:39:19.426Z,13.02
2022-08-18T21:41:49.487Z,12.80
2022-08-18T21:44:21.909Z,12.82
2022-08-18T21:46:49.113Z,12.55
2022-08-18T21:49:28.132Z,12.63
2022-08-18T21:51:54.782Z,12.63
2022-08-18T21:54:24.972Z,12.27
2022-08-18T21:57:18.316Z,12.00
2022-08-18T22:00:23.849Z,12.20
2022-08-18T22:02:52.070Z,11.60
2022-08-18T22:05:57.846Z,13.85
2022-08-18T22:08:22.238Z,13.10
2022-08-18T22:11:36.414Z,13.13
2022-08-18T22:14:53.650Z,12.82
2022-08-18T22:17:48.258Z,14.02
2022-08-18T22:20:41.198Z,13.88
2022-08-18T22:23:32.480Z,12.30
2022-08-18T22:26:23.422Z,12.02
2022-08-18T22:29:02.061Z,13.80
2022-08-18T22:31:32.421Z,13.93
2022-08-18T22:34:07.246Z,13.10
2022-08-18T22:36:45.075Z,12.25
2022-08-18T22:39:16.732Z,12.27
2022-08-18T22:41:46.126Z,13.40
2022-08-18T22:44:12.801Z,12.77
2022-08-18T22:46:39.417Z,13.38
2022-08-18T22:49:06.108Z,13.20
2022-08-18T22:51:37.027Z,12.57
2022-08-18T22:54:09.665Z,13.98
2022-08-18T22:56:38.139Z,13.32
2022-08-18T22:59:15.735Z,13.00
2022-08-18T23:01:45.396Z,14.10
2022-08-18T23:04:12.242Z,13.82
2022-08-18T23:06:38.880Z,13.43
2022-08-18T23:09:05.642Z,13.75
2022-08-18T23:11:32.423Z,14.10
2022-08-18T23:14:02.471Z,12.63
2022-08-18T23:16:30.966Z,12.65
2022-08-18T23:19:01.598Z,13.43
2022-08-18T23:21:35.059Z,13.00
2022-08-18T23:24:07.367Z,13.30
2022-08-18T23:26:34.498Z,13.30
2022-08-18T23:29:01.418Z,12.82
2022-08-18T23:31:28.120Z,14.15
2022-08-18T23:33:54.740Z,13.82
2022-08-18T23:36:21.564Z,14.63
2022-08-18T23:38:48.337Z,13.07
2022-08-18T23:41:16.235Z,13.15
2022-08-18T23:43:43.182Z,13.50
2022-08-18T23:46:21.952Z,14.05
2022-08-18T23:48:52.962Z,13.55
2022-08-18T23:51:41.551Z,14.40
2022-08-18T23:54:11.727Z,14.40
2022-08-18T23:56:38.653Z,13.73
2022-08-18T23:59:07.441Z,14.15
